Time;durP1;ratioP1;P1;durP2;ratioP2;P2;SDS_P1;SDS_P2;PMS_P1;PMS_P2;Temp;Humidity;BMP_temperature;BMP_pressure;BME280_temperature;BME280_humidity;BME280_pressure;Samples;Min_cycle;Max_cycle;Signal;HPM_P1;HPM_P2
2022/12/03 00:02:22;;;;;;;15.80;7.88;;;;;;;;;;5069539;28;20040;-57
2022/12/03 00:04:47;;;;;;;16.75;8.57;;;;;;;;;;5070773;28;20099;-58
2022/12/03 00:07:12;;;;;;;14.75;7.75;;;;;;;;;;5071810;28;20343;-58
2022/12/03 00:09:39;;;;;;;16.05;7.75;;;;;;;;;;5068393;28;20071;-57
2022/12/03 00:12:04;;;;;;;15.98;8.60;;;;;;;;;;5069430;28;20040;-57
2022/12/03 00:14:29;;;;;;;15.55;8.63;;;;;;;;;;5074021;28;20032;-58
2022/12/03 00:16:55;;;;;;;16.48;7.57;;;;;;;;;;5094072;28;20028;-57
2022/12/03 00:19:20;;;;;;;15.82;8.10;;;;;;;;;;5070466;28;20127;-57
2022/12/03 00:21:45;;;;;;;15.10;8.18;;;;;;;;;;5069759;28;20101;-57
2022/12/03 00:24:10;;;;;;;14.20;7.43;;;;;;;;;;5078709;28;20556;-58
2022/12/03 00:26:35;;;;;;;18.50;9.52;;;;;;;;;;5074052;28;20419;-58
2022/12/03 00:29:01;;;;;;;14.05;7.85;;;;;;;;;;5071226;28;20040;-57
2022/12/03 00:31:26;;;;;;;14.65;8.43;;;;;;;;;;5073806;28;20025;-57
2022/12/03 00:33:52;;;;;;;15.80;8.48;;;;;;;;;;5073686;28;20338;-57
2022/12/03 00:36:17;;;;;;;15.98;8.20;;;;;;;;;;5069054;28;20043;-57
2022/12/03 00:38:42;;;;;;;20.48;8.93;;;;;;;;;;5066154;28;20074;-58
2022/12/03 00:41:07;;;;;;;16.52;7.55;;;;;;;;;;5072061;28;20060;-57
2022/12/03 00:43:33;;;;;;;17.92;8.98;;;;;;;;;;5072471;28;20066;-56
2022/12/03 00:45:58;;;;;;;15.23;8.38;;;;;;;;;;5090366;28;20492;-56
2022/12/03 00:48:23;;;;;;;19.92;10.15;;;;;;;;;;5068634;28;20440;-56
2022/12/03 00:50:48;;;;;;;19.52;9.65;;;;;;;;;;5077636;28;20063;-57
2022/12/03 00:53:14;;;;;;;18.13;8.98;;;;;;;;;;5081518;28;20028;-57
2022/12/03 00:55:39;;;;;;;16.77;8.65;;;;;;;;;;5071856;28;20065;-57
2022/12/03 00:58:07;;;;;;;13.07;7.00;;;;;;;;;;5074809;28;20028;-57
2022/12/03 01:00:32;;;;;;;19.98;10.10;;;;;;;;;;5074073;28;20417;-56
2022/12/03 01:02:57;;;;;;;17.23;9.80;;;;;;;;;;5081409;28;20474;-57
2022/12/03 01:05:22;;;;;;;15.27;8.82;;;;;;;;;;5076511;28;20486;-57
2022/12/03 01:07:48;;;;;;;18.08;9.00;;;;;;;;;;5081685;28;20386;-56
2022/12/03 01:10:13;;;;;;;17.30;9.10;;;;;;;;;;5074686;28;20491;-56
2022/12/03 01:12:38;;;;;;;14.65;7.80;;;;;;;;;;5073485;28;20059;-58
2022/12/03 01:15:04;;;;;;;19.33;9.40;;;;;;;;;;5076850;28;20024;-56
2022/12/03 01:17:29;;;;;;;17.85;9.45;;;;;;;;;;5077575;28;20028;-59
2022/12/03 01:19:54;;;;;;;16.25;8.93;;;;;;;;;;5071375;28;20111;-59
2022/12/03 01:22:20;;;;;;;16.67;9.27;;;;;;;;;;5076383;28;20051;-57
2022/12/03 01:24:45;;;;;;;17.00;9.80;;;;;;;;;;5070844;28;20386;-57
2022/12/03 01:27:10;;;;;;;19.20;9.85;;;;;;;;;;5073516;28;20097;-57
2022/12/03 01:29:35;;;;;;;21.40;9.73;;;;;;;;;;5076236;28;20219;-58
2022/12/03 01:32:16;;;;;;;18.35;9.20;;;;;;;;;;5072160;28;20077;-57
2022/12/03 01:34:45;;;;;;;19.00;9.15;;;;;;;;;;5076270;28;20588;-58
2022/12/03 01:37:10;;;;;;;18.02;8.60;;;;;;;;;;5080938;28;20115;-57
2022/12/03 01:39:35;;;;;;;17.92;8.55;;;;;;;;;;5072569;28;20127;-58
2022/12/03 01:42:01;;;;;;;13.25;7.80;;;;;;;;;;5070955;28;20031;-58
2022/12/03 01:44:27;;;;;;;18.63;8.63;;;;;;;;;;5077080;28;20028;-58
2022/12/03 01:46:53;;;;;;;19.48;9.68;;;;;;;;;;5072413;28;20033;-57
2022/12/03 01:49:22;;;;;;;20.98;9.88;;;;;;;;;;5082682;28;20136;-58
2022/12/03 01:51:47;;;;;;;18.98;10.13;;;;;;;;;;5072221;28;20668;-57
2022/12/03 01:54:14;;;;;;;18.85;9.63;;;;;;;;;;5079250;28;20095;-58
2022/12/03 01:56:40;;;;;;;22.45;11.50;;;;;;;;;;5068115;28;20020;-58
2022/12/03 01:59:05;;;;;;;24.05;11.05;;;;;;;;;;5072147;28;20368;-58
2022/12/03 02:01:30;;;;;;;20.70;10.70;;;;;;;;;;5074769;28;20028;-58
2022/12/03 02:03:55;;;;;;;22.27;11.20;;;;;;;;;;5069152;28;20035;-58
2022/12/03 02:06:20;;;;;;;21.60;9.95;;;;;;;;;;5074451;28;20123;-58
2022/12/03 02:08:46;;;;;;;20.92;11.55;;;;;;;;;;5079707;28;20074;-58
2022/12/03 02:11:14;;;;;;;21.58;10.40;;;;;;;;;;5072761;28;20029;-58
2022/12/03 02:13:39;;;;;;;23.90;11.02;;;;;;;;;;5077733;28;20024;-57
2022/12/03 02:16:05;;;;;;;20.73;10.80;;;;;;;;;;5069758;28;20086;-58
2022/12/03 02:18:30;;;;;;;22.85;11.45;;;;;;;;;;5070397;28;20405;-58
2022/12/03 02:21:18;;;;;;;23.38;11.68;;;;;;;;;;5072320;28;20386;-58
2022/12/03 02:23:57;;;;;;;21.52;10.27;;;;;;;;;;5070738;28;20508;-58
2022/12/03 02:26:23;;;;;;;28.10;11.88;;;;;;;;;;5073938;28;20035;-58
2022/12/03 02:28:48;;;;;;;22.85;12.32;;;;;;;;;;5077012;28;20035;-58
2022/12/03 02:31:13;;;;;;;26.42;11.52;;;;;;;;;;5071494;28;20337;-58
2022/12/03 02:33:38;;;;;;;26.52;11.57;;;;;;;;;;5075813;28;20103;-58
2022/12/03 02:36:04;;;;;;;25.95;11.52;;;;;;;;;;5067167;28;20162;-58
2022/12/03 02:38:29;;;;;;;25.88;12.07;;;;;;;;;;5069082;28;20111;-57
2022/12/03 02:40:55;;;;;;;24.77;12.52;;;;;;;;;;5076015;28;20063;-56
2022/12/03 02:43:21;;;;;;;26.65;13.00;;;;;;;;;;5073485;28;20026;-59
2022/12/03 02:45:47;;;;;;;30.40;14.55;;;;;;;;;;5066054;28;20517;-58
2022/12/03 02:48:13;;;;;;;25.55;12.82;;;;;;;;;;5079302;28;20039;-58
2022/12/03 02:50:49;;;;;;;28.38;12.40;;;;;;;;;;5079949;28;20030;-58
2022/12/03 02:53:27;;;;;;;33.00;14.63;;;;;;;;;;5072773;28;20029;-58
2022/12/03 02:55:53;;;;;;;30.48;15.15;;;;;;;;;;5070674;28;20031;-58
2022/12/03 02:58:18;;;;;;;30.75;14.00;;;;;;;;;;5074943;28;20032;-58
2022/12/03 03:00:44;;;;;;;32.58;14.35;;;;;;;;;;5071247;28;20036;-57
2022/12/03 03:03:09;;;;;;;30.55;14.25;;;;;;;;;;5067781;28;20027;-59
2022/12/03 03:05:35;;;;;;;34.38;13.35;;;;;;;;;;5080024;28;20048;-59
2022/12/03 03:08:00;;;;;;;29.42;13.20;;;;;;;;;;5073141;28;20390;-59
2022/12/03 03:10:25;;;;;;;30.75;14.18;;;;;;;;;;5071836;28;20021;-56
2022/12/03 03:12:51;;;;;;;29.40;14.70;;;;;;;;;;5081478;28;20489;-58
2022/12/03 03:15:17;;;;;;;28.95;14.25;;;;;;;;;;5073904;28;20433;-58
2022/12/03 03:17:42;;;;;;;31.42;13.90;;;;;;;;;;5073570;28;20024;-57
2022/12/03 03:20:08;;;;;;;32.28;14.35;;;;;;;;;;5070721;28;20117;-59
2022/12/03 03:22:34;;;;;;;32.60;14.55;;;;;;;;;;5072754;28;20070;-58
2022/12/03 03:24:59;;;;;;;30.10;13.93;;;;;;;;;;5067911;28;20540;-58
2022/12/03 03:27:24;;;;;;;26.08;12.68;;;;;;;;;;5080768;28;20043;-57
2022/12/03 03:29:50;;;;;;;28.02;13.70;;;;;;;;;;5070706;28;20056;-57
2022/12/03 03:32:15;;;;;;;26.92;12.85;;;;;;;;;;5076233;28;20036;-56
2022/12/03 03:34:40;;;;;;;17.58;9.10;;;;;;;;;;5077352;28;20031;-56
2022/12/03 03:37:06;;;;;;;27.95;12.38;;;;;;;;;;5066115;28;20028;-56
2022/12/03 03:39:31;;;;;;;24.67;11.70;;;;;;;;;;5070130;28;20487;-56
2022/12/03 03:41:56;;;;;;;25.60;13.20;;;;;;;;;;5070595;28;20056;-59
2022/12/03 03:44:21;;;;;;;25.48;12.27;;;;;;;;;;5073272;28;20126;-57
2022/12/03 03:46:47;;;;;;;25.63;13.05;;;;;;;;;;5074415;28;20043;-57
2022/12/03 03:49:13;;;;;;;27.27;11.60;;;;;;;;;;5072614;28;20109;-57
2022/12/03 03:51:38;;;;;;;28.30;11.52;;;;;;;;;;5075018;28;20024;-57
2022/12/03 03:54:04;;;;;;;24.42;11.50;;;;;;;;;;5073892;28;20051;-56
2022/12/03 03:56:29;;;;;;;27.63;12.52;;;;;;;;;;5071127;28;20042;-57
2022/12/03 03:58:54;;;;;;;25.52;12.30;;;;;;;;;;5070494;28;20016;-57
2022/12/03 04:01:20;;;;;;;25.75;12.27;;;;;;;;;;5068411;28;20040;-57
2022/12/03 04:03:45;;;;;;;29.60;12.68;;;;;;;;;;5069762;28;20324;-58
2022/12/03 04:06:10;;;;;;;22.38;11.70;;;;;;;;;;5071137;28;20205;-57
2022/12/03 04:08:35;;;;;;;25.52;12.93;;;;;;;;;;5081964;28;20079;-57
2022/12/03 04:13:44;;;;;;;26.27;12.50;;;;;;;;;;5080148;28;20027;-57
2022/12/03 04:16:10;;;;;;;28.05;13.90;;;;;;;;;;5074259;28;20029;-57
2022/12/03 04:18:44;;;;;;;26.73;12.35;;;;;;;;;;5068824;28;20117;-57
2022/12/03 04:23:54;;;;;;;25.40;12.50;;;;;;;;;;5073289;28;20038;-57
2022/12/03 04:29:03;;;;;;;29.77;14.55;;;;;;;;;;5070954;28;20039;-57
2022/12/03 04:36:56;;;;;;;22.13;10.82;;;;;;;;;;5071052;28;20035;-57
2022/12/03 04:39:22;;;;;;;22.08;10.95;;;;;;;;;;5067545;28;20264;-57
2022/12/03 04:41:47;;;;;;;23.15;11.50;;;;;;;;;;5079194;28;20035;-57
2022/12/03 04:46:56;;;;;;;21.55;10.00;;;;;;;;;;5064924;28;20032;-57
2022/12/03 04:49:22;;;;;;;23.90;11.35;;;;;;;;;;5078462;28;20032;-57
2022/12/03 04:51:47;;;;;;;20.20;9.98;;;;;;;;;;5077034;28;20024;-57
2022/12/03 04:54:12;;;;;;;23.13;10.70;;;;;;;;;;5075920;28;20040;-57
2022/12/03 04:56:37;;;;;;;24.65;10.85;;;;;;;;;;5072272;28;20260;-57
2022/12/03 04:59:02;;;;;;;21.08;10.45;;;;;;;;;;5075358;28;20037;-57
2022/12/03 05:01:30;;;;;;;22.80;11.50;;;;;;;;;;5068241;28;20028;-57
2022/12/03 05:03:55;;;;;;;21.20;10.60;;;;;;;;;;5072981;28;20036;-56
2022/12/03 05:06:20;;;;;;;21.02;11.27;;;;;;;;;;5075507;28;20411;-57
2022/12/03 05:08:46;;;;;;;21.60;10.43;;;;;;;;;;5073820;28;20422;-57
2022/12/03 05:11:11;;;;;;;20.58;9.13;;;;;;;;;;5070118;28;20044;-57
2022/12/03 05:13:36;;;;;;;19.70;10.15;;;;;;;;;;5076149;28;20024;-56
2022/12/03 05:16:01;;;;;;;19.25;9.43;;;;;;;;;;5073038;28;20024;-57
2022/12/03 05:18:27;;;;;;;21.05;10.57;;;;;;;;;;5071035;28;20028;-57
2022/12/03 05:20:52;;;;;;;22.17;11.45;;;;;;;;;;5074379;28;20324;-57
2022/12/03 05:23:17;;;;;;;20.90;10.40;;;;;;;;;;5066819;28;20089;-57
2022/12/03 05:25:42;;;;;;;19.85;10.70;;;;;;;;;;5067100;28;20063;-57
2022/12/03 05:28:08;;;;;;;17.77;9.75;;;;;;;;;;5071002;28;20040;-56
2022/12/03 05:30:33;;;;;;;22.58;11.25;;;;;;;;;;5072772;28;20127;-57
2022/12/03 05:32:58;;;;;;;19.23;9.43;;;;;;;;;;5070315;28;20059;-57
2022/12/03 05:35:23;;;;;;;21.80;10.25;;;;;;;;;;5067057;28;20032;-56
2022/12/03 05:37:49;;;;;;;17.52;9.27;;;;;;;;;;5081960;28;20041;-56
2022/12/03 05:40:14;;;;;;;19.98;10.50;;;;;;;;;;5076863;28;20024;-57
2022/12/03 05:42:59;;;;;;;20.67;10.98;;;;;;;;;;5078081;28;20390;-56
2022/12/03 05:45:38;;;;;;;21.63;10.40;;;;;;;;;;5081435;28;20029;-57
2022/12/03 05:48:04;;;;;;;21.38;10.65;;;;;;;;;;5076617;28;20036;-57
2022/12/03 05:50:31;;;;;;;21.38;10.90;;;;;;;;;;5075455;28;20036;-57
2022/12/03 05:52:56;;;;;;;20.25;10.68;;;;;;;;;;5077065;28;20032;-56
2022/12/03 05:55:21;;;;;;;21.92;9.90;;;;;;;;;;5074812;28;20093;-56
2022/12/03 05:57:47;;;;;;;17.98;9.20;;;;;;;;;;5078628;28;20026;-57
2022/12/03 06:00:19;;;;;;;18.20;9.18;;;;;;;;;;5077705;28;20025;-56
2022/12/03 06:02:44;;;;;;;17.65;8.93;;;;;;;;;;5072934;28;20408;-57
2022/12/03 06:05:09;;;;;;;17.52;9.02;;;;;;;;;;5072542;28;20082;-57
2022/12/03 06:07:35;;;;;;;20.17;8.65;;;;;;;;;;5075993;28;20028;-55
2022/12/03 06:10:00;;;;;;;17.33;8.82;;;;;;;;;;5074318;28;20455;-56
2022/12/03 06:12:25;;;;;;;19.75;9.75;;;;;;;;;;5072595;28;20087;-56
2022/12/03 06:14:51;;;;;;;18.38;8.85;;;;;;;;;;5066629;28;20432;-57
2022/12/03 06:17:16;;;;;;;16.95;7.68;;;;;;;;;;5075421;28;20110;-57
2022/12/03 06:19:41;;;;;;;18.17;9.55;;;;;;;;;;5078653;28;20016;-56
2022/12/03 06:22:07;;;;;;;20.00;9.60;;;;;;;;;;5077078;28;20039;-57
2022/12/03 06:24:32;;;;;;;18.05;10.10;;;;;;;;;;5071255;28;20040;-57
2022/12/03 06:26:57;;;;;;;23.50;10.98;;;;;;;;;;5079077;28;20032;-57
2022/12/03 06:29:22;;;;;;;19.67;9.80;;;;;;;;;;5077527;28;20043;-57
2022/12/03 06:31:48;;;;;;;21.30;9.80;;;;;;;;;;5074019;28;20015;-57
2022/12/03 06:34:13;;;;;;;19.40;10.45;;;;;;;;;;5068067;28;20396;-57
2022/12/03 06:36:38;;;;;;;17.48;9.60;;;;;;;;;;5070407;28;20425;-57
2022/12/03 06:39:03;;;;;;;22.65;10.18;;;;;;;;;;5075709;28;20449;-56
2022/12/03 06:41:29;;;;;;;17.30;9.10;;;;;;;;;;5067847;28;20028;-57
2022/12/03 06:43:54;;;;;;;21.20;12.15;;;;;;;;;;5073433;28;20442;-56
2022/12/03 06:46:19;;;;;;;18.17;8.38;;;;;;;;;;5065683;28;20032;-57
2022/12/03 06:48:44;;;;;;;20.85;9.82;;;;;;;;;;5072968;28;20180;-57
2022/12/03 06:51:10;;;;;;;20.08;10.15;;;;;;;;;;5072442;28;20035;-57
2022/12/03 06:53:35;;;;;;;20.00;10.65;;;;;;;;;;5080185;28;20028;-57
2022/12/03 06:56:03;;;;;;;19.05;10.55;;;;;;;;;;5072866;28;20066;-57
2022/12/03 06:58:28;;;;;;;18.10;9.88;;;;;;;;;;5073365;28;20028;-57
2022/12/03 07:00:53;;;;;;;19.10;9.35;;;;;;;;;;5075349;28;20428;-57
2022/12/03 07:03:18;;;;;;;19.90;9.63;;;;;;;;;;5068374;28;20036;-57
2022/12/03 07:05:44;;;;;;;21.92;10.25;;;;;;;;;;5074592;28;20754;-57
2022/12/03 07:08:09;;;;;;;17.35;8.93;;;;;;;;;;5067779;28;20040;-57
2022/12/03 07:10:34;;;;;;;21.95;10.55;;;;;;;;;;5072672;28;20059;-57
2022/12/03 07:12:59;;;;;;;22.10;10.02;;;;;;;;;;5075270;28;20619;-57
2022/12/03 07:15:25;;;;;;;22.27;10.35;;;;;;;;;;5078783;28;20383;-57
2022/12/03 07:17:50;;;;;;;18.60;9.20;;;;;;;;;;5071937;28;20669;-56
2022/12/03 07:20:15;;;;;;;16.50;8.13;;;;;;;;;;5076198;28;20550;-56
2022/12/03 07:22:40;;;;;;;15.88;8.48;;;;;;;;;;5072059;28;20081;-57
2022/12/03 07:25:06;;;;;;;20.15;9.32;;;;;;;;;;5069606;28;20032;-57
2022/12/03 07:27:34;;;;;;;14.43;7.57;;;;;;;;;;5068961;28;20379;-57
2022/12/03 07:29:59;;;;;;;17.77;9.95;;;;;;;;;;5075353;28;20123;-57
2022/12/03 07:32:25;;;;;;;21.13;10.13;;;;;;;;;;5077021;28;20055;-57
2022/12/03 07:34:50;;;;;;;18.13;10.43;;;;;;;;;;5072504;28;20028;-58
2022/12/03 07:37:15;;;;;;;23.27;10.75;;;;;;;;;;5071314;28;20501;-57
2022/12/03 07:39:41;;;;;;;19.42;10.23;;;;;;;;;;5073932;28;20036;-57
2022/12/03 07:42:08;;;;;;;21.77;10.68;;;;;;;;;;5071989;28;20033;-58
2022/12/03 07:44:33;;;;;;;21.52;10.50;;;;;;;;;;5074537;28;20021;-58
2022/12/03 07:47:01;;;;;;;19.67;10.32;;;;;;;;;;5077681;28;20023;-57
2022/12/03 07:49:26;;;;;;;18.13;9.85;;;;;;;;;;5075535;28;20224;-58
2022/12/03 07:51:56;;;;;;;21.83;11.25;;;;;;;;;;5072284;28;20579;-58
2022/12/03 07:54:24;;;;;;;21.48;10.95;;;;;;;;;;5071204;28;20308;-58
2022/12/03 07:56:49;;;;;;;20.90;9.93;;;;;;;;;;5069963;28;20063;-58
2022/12/03 07:59:15;;;;;;;21.58;10.95;;;;;;;;;;5069001;28;20322;-58
2022/12/03 08:01:40;;;;;;;20.60;10.80;;;;;;;;;;5078920;28;20156;-58
2022/12/03 08:04:05;;;;;;;22.25;11.18;;;;;;;;;;5078442;28;20024;-57
2022/12/03 08:06:30;;;;;;;20.75;10.00;;;;;;;;;;5071298;28;20032;-57
2022/12/03 08:08:56;;;;;;;19.15;7.93;;;;;;;;;;5070974;28;20132;-58
2022/12/03 08:11:21;;;;;;;15.30;8.77;;;;;;;;;;5070914;28;20051;-57
2022/12/03 08:13:46;;;;;;;17.48;9.23;;;;;;;;;;5064271;28;20031;-56
2022/12/03 08:16:18;;;;;;;19.13;10.75;;;;;;;;;;5065050;28;20027;-56
2022/12/03 08:18:44;;;;;;;19.30;10.35;;;;;;;;;;5071389;28;20135;-57
2022/12/03 08:21:12;;;;;;;24.27;12.90;;;;;;;;;;5071667;28;20112;-56
2022/12/03 08:23:37;;;;;;;23.65;11.57;;;;;;;;;;5071195;28;20024;-57
2022/12/03 08:26:05;;;;;;;19.90;11.07;;;;;;;;;;5075908;28;20508;-58
2022/12/03 08:28:31;;;;;;;22.90;10.50;;;;;;;;;;5072208;28;20139;-58
2022/12/03 08:31:00;;;;;;;24.55;12.60;;;;;;;;;;5073319;28;20039;-58
2022/12/03 08:33:32;;;;;;;27.42;13.10;;;;;;;;;;5076804;28;20032;-58
2022/12/03 08:35:57;;;;;;;23.73;12.63;;;;;;;;;;5075587;28;20485;-58
2022/12/03 08:38:22;;;;;;;27.95;13.07;;;;;;;;;;5072724;28;20031;-58
2022/12/03 08:40:49;;;;;;;27.67;12.15;;;;;;;;;;5074673;28;20386;-57
2022/12/03 08:43:23;;;;;;;21.77;10.70;;;;;;;;;;5072783;28;20479;-57
2022/12/03 08:45:48;;;;;;;27.45;11.40;;;;;;;;;;5067766;28;20028;-56
2022/12/03 08:48:20;;;;;;;29.20;13.90;;;;;;;;;;5089553;28;20036;-57
2022/12/03 08:50:45;;;;;;;15.05;8.82;;;;;;;;;;5070695;28;20028;-57
2022/12/03 08:53:10;;;;;;;24.20;11.90;;;;;;;;;;5068105;28;20047;-57
2022/12/03 08:55:36;;;;;;;22.50;10.48;;;;;;;;;;5074113;28;20106;-56
2022/12/03 08:58:13;;;;;;;21.98;10.52;;;;;;;;;;5081221;28;20169;-57
2022/12/03 09:00:40;;;;;;;25.10;12.38;;;;;;;;;;5070076;28;20376;-57
2022/12/03 09:03:07;;;;;;;21.75;11.00;;;;;;;;;;5067781;28;20475;-59
2022/12/03 09:05:32;;;;;;;25.88;11.57;;;;;;;;;;5066387;28;20511;-58
2022/12/03 09:07:57;;;;;;;21.15;11.45;;;;;;;;;;5070599;28;20028;-57
2022/12/03 09:10:23;;;;;;;20.65;11.80;;;;;;;;;;5075340;28;20028;-56
2022/12/03 09:12:48;;;;;;;26.30;13.50;;;;;;;;;;5078304;28;20032;-55
2022/12/03 09:15:13;;;;;;;23.35;12.05;;;;;;;;;;5072572;28;20028;-56
2022/12/03 09:17:38;;;;;;;20.63;10.10;;;;;;;;;;5081456;28;20031;-56
2022/12/03 09:20:07;;;;;;;25.60;13.52;;;;;;;;;;5075741;28;20466;-56
2022/12/03 09:22:33;;;;;;;24.83;13.38;;;;;;;;;;5077555;28;20027;-55
2022/12/03 09:24:58;;;;;;;28.48;12.80;;;;;;;;;;5075114;28;20020;-56
2022/12/03 09:27:23;;;;;;;28.38;12.88;;;;;;;;;;5074435;28;20175;-55
2022/12/03 09:29:49;;;;;;;29.00;12.50;;;;;;;;;;5075127;28;20036;-57
2022/12/03 09:32:14;;;;;;;29.38;14.25;;;;;;;;;;5076542;28;20032;-56
2022/12/03 09:34:41;;;;;;;30.05;13.85;;;;;;;;;;5071734;28;20021;-58
2022/12/03 09:37:09;;;;;;;21.83;10.35;;;;;;;;;;5070855;28;20032;-59
2022/12/03 09:39:34;;;;;;;24.63;11.57;;;;;;;;;;5074135;28;20339;-56
2022/12/03 09:41:59;;;;;;;30.55;14.25;;;;;;;;;;5074409;28;20024;-56
2022/12/03 09:44:27;;;;;;;28.98;13.52;;;;;;;;;;5077554;28;20036;-58
2022/12/03 09:46:52;;;;;;;28.75;13.13;;;;;;;;;;5072519;28;20031;-58
2022/12/03 09:49:18;;;;;;;30.45;13.40;;;;;;;;;;5074811;28;20039;-56
2022/12/03 09:51:44;;;;;;;30.48;14.30;;;;;;;;;;5072013;28;20027;-55
2022/12/03 09:54:09;;;;;;;31.60;14.57;;;;;;;;;;5077157;28;20055;-56
2022/12/03 09:56:35;;;;;;;32.35;14.70;;;;;;;;;;5070734;28;20032;-55
2022/12/03 09:59:01;;;;;;;28.20;13.35;;;;;;;;;;5079397;28;20020;-56
2022/12/03 10:01:26;;;;;;;32.08;13.73;;;;;;;;;;5075308;28;20096;-54
2022/12/03 10:03:52;;;;;;;26.90;13.20;;;;;;;;;;5078924;28;20458;-57
2022/12/03 10:06:18;;;;;;;28.30;13.85;;;;;;;;;;5069630;28;20385;-56
2022/12/03 10:08:47;;;;;;;43.55;17.52;;;;;;;;;;5082623;28;20036;-56
2022/12/03 10:11:12;;;;;;;29.27;13.40;;;;;;;;;;5071866;28;20037;-57
2022/12/03 10:13:37;;;;;;;35.28;14.15;;;;;;;;;;5084186;28;20089;-56
2022/12/03 10:16:05;;;;;;;24.23;11.80;;;;;;;;;;5076677;28;20025;-55
2022/12/03 10:18:31;;;;;;;33.92;15.65;;;;;;;;;;5072215;28;20028;-57
2022/12/03 10:20:56;;;;;;;32.92;14.23;;;;;;;;;;5076624;28;20039;-56
2022/12/03 10:23:26;;;;;;;32.60;14.18;;;;;;;;;;5074026;28;20032;-57
2022/12/03 10:25:55;;;;;;;23.25;11.13;;;;;;;;;;5066011;28;20037;-56
2022/12/03 10:28:33;;;;;;;27.33;13.13;;;;;;;;;;5076369;28;20133;-56
2022/12/03 10:30:59;;;;;;;27.52;12.57;;;;;;;;;;5072650;28;20066;-56
2022/12/03 10:33:28;;;;;;;17.83;9.32;;;;;;;;;;5069592;28;20181;-57
2022/12/03 10:35:53;;;;;;;22.05;12.07;;;;;;;;;;5073861;28;20028;-57
2022/12/03 10:38:21;;;;;;;27.30;13.23;;;;;;;;;;5077124;28;20040;-56
2022/12/03 10:40:46;;;;;;;32.60;14.55;;;;;;;;;;5069103;28;20027;-56
2022/12/03 10:43:12;;;;;;;27.98;12.30;;;;;;;;;;5075502;28;20094;-57
2022/12/03 10:45:37;;;;;;;35.38;16.55;;;;;;;;;;5073902;28;20023;-56
2022/12/03 10:48:10;;;;;;;30.33;13.43;;;;;;;;;;5077662;28;20023;-56
2022/12/03 10:50:35;;;;;;;28.38;12.48;;;;;;;;;;5075694;28;20027;-57
2022/12/03 10:53:01;;;;;;;29.63;13.90;;;;;;;;;;5075534;28;20374;-57
2022/12/03 10:55:27;;;;;;;31.15;13.15;;;;;;;;;;5075543;28;20028;-57
2022/12/03 10:57:52;;;;;;;35.30;16.20;;;;;;;;;;5073195;28;20024;-57
2022/12/03 11:00:18;;;;;;;27.33;11.32;;;;;;;;;;5071330;28;20479;-57
2022/12/03 11:02:43;;;;;;;34.63;15.50;;;;;;;;;;5069587;28;20024;-57
2022/12/03 11:05:12;;;;;;;36.30;15.05;;;;;;;;;;5071230;28;20055;-56
2022/12/03 11:07:37;;;;;;;25.02;10.48;;;;;;;;;;5072482;28;20455;-57
2022/12/03 11:10:05;;;;;;;33.70;13.13;;;;;;;;;;5075251;28;20040;-56
2022/12/03 11:12:33;;;;;;;33.53;14.65;;;;;;;;;;5071049;28;20100;-56
2022/12/03 11:15:05;;;;;;;31.63;14.55;;;;;;;;;;5070155;28;20308;-56
2022/12/03 11:17:43;;;;;;;33.08;14.68;;;;;;;;;;5083142;28;20024;-56
2022/12/03 11:20:08;;;;;;;33.60;15.38;;;;;;;;;;5075751;28;20039;-57
2022/12/03 11:22:39;;;;;;;29.48;13.10;;;;;;;;;;5081780;28;20032;-54
2022/12/03 11:25:22;;;;;;;31.60;14.75;;;;;;;;;;5073593;28;20113;-57
2022/12/03 11:28:08;;;;;;;37.28;17.13;;;;;;;;;;5071701;28;20028;-57
2022/12/03 11:30:49;;;;;;;30.77;13.90;;;;;;;;;;5078139;28;20043;-56
2022/12/03 11:33:33;;;;;;;30.70;15.52;;;;;;;;;;5071079;28;20527;-56
2022/12/03 11:36:02;;;;;;;34.20;15.95;;;;;;;;;;5065943;28;20343;-57
2022/12/03 11:38:36;;;;;;;31.52;14.30;;;;;;;;;;5078125;28;20036;-57
2022/12/03 11:41:17;;;;;;;29.27;12.90;;;;;;;;;;5076988;28;20108;-57
2022/12/03 11:43:51;;;;;;;34.03;14.55;;;;;;;;;;5078360;28;20027;-57
2022/12/03 11:46:17;;;;;;;34.38;14.57;;;;;;;;;;5067262;28;20032;-61
2022/12/03 11:48:45;;;;;;;41.80;17.20;;;;;;;;;;5079085;28;20386;-57
2022/12/03 11:51:13;;;;;;;34.72;13.82;;;;;;;;;;5071743;28;20024;-57
2022/12/03 11:53:39;;;;;;;33.70;15.32;;;;;;;;;;5073676;28;20043;-58
2022/12/03 11:56:07;;;;;;;32.95;14.98;;;;;;;;;;5069221;28;20025;-56
2022/12/03 11:58:37;;;;;;;65.55;22.83;;;;;;;;;;5069759;28;20036;-56
2022/12/03 12:01:02;;;;;;;44.65;17.95;;;;;;;;;;5081742;28;20108;-56
2022/12/03 12:03:31;;;;;;;40.65;16.83;;;;;;;;;;5076165;28;20127;-57
2022/12/03 12:06:02;;;;;;;36.45;15.93;;;;;;;;;;5074978;28;20169;-57
2022/12/03 12:08:28;;;;;;;43.72;16.95;;;;;;;;;;5071507;28;20032;-57
2022/12/03 12:10:53;;;;;;;37.50;17.00;;;;;;;;;;5074528;28;20057;-57
2022/12/03 12:13:25;;;;;;;42.17;17.77;;;;;;;;;;5069817;28;20028;-56
2022/12/03 12:15:50;;;;;;;37.42;16.20;;;;;;;;;;5073202;28;20486;-58
2022/12/03 12:18:35;;;;;;;35.40;15.55;;;;;;;;;;5074595;28;20032;-58
2022/12/03 12:21:24;;;;;;;36.58;17.20;;;;;;;;;;5069099;28;20027;-58
2022/12/03 12:23:49;;;;;;;35.60;18.27;;;;;;;;;;5068725;28;20086;-56
2022/12/03 12:26:14;;;;;;;40.35;20.90;;;;;;;;;;5066214;28;20470;-57
2022/12/03 12:28:39;;;;;;;38.50;18.23;;;;;;;;;;5076198;28;20639;-57
2022/12/03 12:31:10;;;;;;;39.05;18.08;;;;;;;;;;5072622;28;20048;-56
2022/12/03 12:33:36;;;;;;;33.47;15.32;;;;;;;;;;5070524;28;20036;-57
2022/12/03 12:36:04;;;;;;;45.50;19.00;;;;;;;;;;5071368;28;20031;-57
2022/12/03 12:38:29;;;;;;;37.28;17.88;;;;;;;;;;5076975;28;20024;-56
2022/12/03 12:40:55;;;;;;;37.58;16.05;;;;;;;;;;5078875;28;20031;-57
2022/12/03 12:43:22;;;;;;;36.85;16.55;;;;;;;;;;5074986;28;20397;-57
2022/12/03 12:45:47;;;;;;;32.53;14.27;;;;;;;;;;5077597;28;20032;-57
2022/12/03 12:48:20;;;;;;;28.20;13.63;;;;;;;;;;5072348;28;20446;-58
2022/12/03 12:50:45;;;;;;;34.85;16.15;;;;;;;;;;5085676;28;20124;-57
2022/12/03 12:53:11;;;;;;;39.65;17.08;;;;;;;;;;5079781;28;20477;-57
2022/12/03 12:55:39;;;;;;;31.30;14.57;;;;;;;;;;5072020;28;20027;-57
2022/12/03 12:58:09;;;;;;;31.77;15.38;;;;;;;;;;5075285;28;20031;-57
2022/12/03 13:00:34;;;;;;;32.03;13.88;;;;;;;;;;5077967;28;20441;-57
2022/12/03 13:03:00;;;;;;;29.60;14.40;;;;;;;;;;5080192;28;20021;-57
2022/12/03 13:05:26;;;;;;;35.05;16.77;;;;;;;;;;5076951;28;20056;-58
2022/12/03 13:07:52;;;;;;;34.22;15.95;;;;;;;;;;5074410;28;20039;-57
2022/12/03 13:10:23;;;;;;;40.10;16.70;;;;;;;;;;5070953;28;20040;-55
2022/12/03 13:12:48;;;;;;;35.78;16.02;;;;;;;;;;5080659;28;20026;-57
2022/12/03 13:15:32;;;;;;;41.70;16.50;;;;;;;;;;5079032;28;20028;-57
2022/12/03 13:17:58;;;;;;;35.85;15.77;;;;;;;;;;5077856;28;20024;-57
2022/12/03 13:20:23;;;;;;;34.97;15.18;;;;;;;;;;5075066;28;20042;-56
2022/12/03 13:22:48;;;;;;;34.85;15.63;;;;;;;;;;5072423;28;20028;-57
2022/12/03 13:25:35;;;;;;;41.10;18.10;;;;;;;;;;5074498;28;20016;-57
2022/12/03 13:28:01;;;;;;;42.72;18.05;;;;;;;;;;5074681;28;20497;-57
2022/12/03 13:30:27;;;;;;;41.08;18.17;;;;;;;;;;5075791;28;20024;-56
2022/12/03 13:32:52;;;;;;;46.17;20.55;;;;;;;;;;5074791;28;20027;-58
2022/12/03 13:35:22;;;;;;;52.03;20.88;;;;;;;;;;5078390;28;20024;-58
2022/12/03 13:37:48;;;;;;;36.78;17.83;;;;;;;;;;5084488;28;20027;-56
2022/12/03 13:40:25;;;;;;;44.70;19.25;;;;;;;;;;5071596;28;20459;-57
2022/12/03 13:42:51;;;;;;;39.85;16.75;;;;;;;;;;5076678;28;20489;-58
2022/12/03 13:45:17;;;;;;;41.08;16.08;;;;;;;;;;5079515;28;20021;-58
2022/12/03 13:47:43;;;;;;;44.20;18.58;;;;;;;;;;5079214;28;20531;-57
2022/12/03 13:50:20;;;;;;;34.60;16.05;;;;;;;;;;5067502;28;20552;-58
2022/12/03 13:52:46;;;;;;;42.97;17.60;;;;;;;;;;5068360;28;20630;-58
2022/12/03 13:55:12;;;;;;;36.30;18.25;;;;;;;;;;5080672;28;20040;-57
2022/12/03 13:57:37;;;;;;;41.15;18.90;;;;;;;;;;5071569;28;20066;-57
2022/12/03 14:00:03;;;;;;;35.70;18.10;;;;;;;;;;5075261;28;20067;-57
2022/12/03 14:02:28;;;;;;;37.85;18.65;;;;;;;;;;5076707;28;20086;-57
2022/12/03 14:04:53;;;;;;;38.30;16.77;;;;;;;;;;5075776;28;20044;-58
2022/12/03 14:07:18;;;;;;;35.63;16.25;;;;;;;;;;5075400;28;20354;-58
2022/12/03 14:09:44;;;;;;;38.42;17.17;;;;;;;;;;5078892;28;20031;-57
2022/12/03 14:12:24;;;;;;;34.65;16.17;;;;;;;;;;5081332;28;20055;-58
2022/12/03 14:14:49;;;;;;;31.98;15.15;;;;;;;;;;5075395;28;20032;-56
2022/12/03 14:17:15;;;;;;;28.60;14.05;;;;;;;;;;5076392;28;20426;-55
2022/12/03 14:19:40;;;;;;;39.67;16.92;;;;;;;;;;5072126;28;20020;-56
2022/12/03 14:22:08;;;;;;;46.60;17.65;;;;;;;;;;5071543;28;20086;-58
2022/12/03 14:24:33;;;;;;;38.55;17.85;;;;;;;;;;5068402;28;20040;-58
2022/12/03 14:26:58;;;;;;;38.15;18.27;;;;;;;;;;5071088;28;20024;-58
2022/12/03 14:29:23;;;;;;;34.40;15.98;;;;;;;;;;5071868;28;20039;-57
2022/12/03 14:31:49;;;;;;;36.90;18.02;;;;;;;;;;5073127;28;20086;-57
2022/12/03 14:34:14;;;;;;;37.58;17.90;;;;;;;;;;5071244;28;20034;-57
2022/12/03 14:36:39;;;;;;;35.90;16.67;;;;;;;;;;5074256;28;20483;-58